Time;durP1;ratioP1;P1;durP2;ratioP2;P2;SDS_P1;SDS_P2;PMS_P1;PMS_P2;Temp;Humidity;BMP_temperature;BMP_pressure;BME280_temperature;BME280_humidity;BME280_pressure;Samples;Min_cycle;Max_cycle;Signal;HPM_P1;HPM_P2
2022/07/03 00:02:00;;;;;;;1.93;1.83;;;21.70;47.10;;;;;;20715;6846;119280;-87
2022/07/03 00:04:25;;;;;;;3.17;2.00;;;21.40;47.30;;;;;;20695;6846;116460;-87
2022/07/03 00:06:52;;;;;;;2.30;2.20;;;21.20;47.50;;;;;;20532;6844;280623;-88
2022/07/03 00:09:18;;;;;;;2.25;2.15;;;21.50;47.30;;;;;;20529;6845;278490;-87
2022/07/03 00:11:43;;;;;;;2.40;2.27;;;21.80;46.80;;;;;;20723;6845;120566;-88
2022/07/03 00:14:11;;;;;;;2.20;2.10;;;21.70;46.80;;;;;;20549;6846;280973;-88
2022/07/03 00:16:36;;;;;;;2.17;2.08;;;21.80;46.80;;;;;;20539;6846;337729;-88
2022/07/03 00:19:02;;;;;;;2.03;1.93;;;22.00;46.60;;;;;;20541;6846;309402;-88
2022/07/03 00:21:30;;;;;;;2.23;2.13;;;22.20;46.30;;;;;;20527;6846;307102;-88
2022/07/03 00:23:56;;;;;;;2.37;2.27;;;22.30;46.10;;;;;;20464;6846;297010;-87
2022/07/03 00:26:21;;;;;;;2.40;2.20;;;22.40;46.00;;;;;;20514;6846;338102;-87
2022/07/03 00:28:47;;;;;;;2.30;2.20;;;22.40;45.90;;;;;;20531;6846;310413;-87
2022/07/03 00:31:15;;;;;;;2.35;2.15;;;22.40;46.00;;;;;;20745;6846;117878;-87
2022/07/03 00:33:41;;;;;;;2.00;1.90;;;21.70;47.00;;;;;;20740;6846;117371;-88
2022/07/03 00:36:07;;;;;;;2.00;1.90;;;21.70;47.00;;;;;;20571;6846;117629;-87
2022/07/03 00:38:33;;;;;;;1.80;1.70;;;21.20;48.40;;;;;;20740;6846;118092;-87
2022/07/03 00:41:00;;;;;;;2.03;1.93;;;21.10;48.30;;;;;;20745;6846;117636;-86
2022/07/03 00:43:27;;;;;;;2.65;2.45;;;21.00;48.70;;;;;;20530;6846;334024;-87
2022/07/03 00:45:53;;;;;;;2.58;2.47;;;21.20;48.50;;;;;;20516;6846;279776;-88
2022/07/03 00:48:18;;;;;;;2.57;2.33;;;21.50;48.10;;;;;;20524;6846;279394;-87
2022/07/03 00:50:44;;;;;;;2.30;2.10;;;21.80;48.00;;;;;;20720;6846;117143;-87
2022/07/03 00:53:09;;;;;;;2.30;2.20;;;21.70;48.10;;;;;;20530;6846;278497;-87
2022/07/03 00:55:35;;;;;;;2.30;2.20;;;21.70;47.80;;;;;;20738;6846;122263;-87
2022/07/03 00:58:00;;;;;;;2.70;2.57;;;21.50;48.00;;;;;;20497;6846;399291;-87
2022/07/03 01:00:26;;;;;;;2.47;2.37;;;21.60;48.00;;;;;;20526;6846;337721;-87
2022/07/03 01:03:08;;;;;;;2.37;2.17;;;21.80;48.00;;;;;;20733;6846;118172;-87
2022/07/03 01:05:36;;;;;;;2.40;2.20;;;21.60;48.30;;;;;;20487;6846;279089;-87
2022/07/03 01:08:22;;;;;;;2.55;2.20;;;21.70;48.90;;;;;;20497;6846;281092;-87
2022/07/03 01:11:04;;;;;;;2.37;2.27;;;21.80;48.60;;;;;;20718;6846;117292;-88
2022/07/03 01:13:50;;;;;;;2.73;2.53;;;21.60;48.60;;;;;;20519;6846;317415;-87
2022/07/03 01:16:31;;;;;;;2.30;2.20;;;21.60;48.00;;;;;;20498;6846;308786;-87
2022/07/03 01:19:03;;;;;;;2.62;2.42;;;21.80;47.80;;;;;;20313;6844;337224;-87
2022/07/03 01:21:42;;;;;;;2.67;2.40;;;21.90;47.70;;;;;;20490;6845;308108;-87
2022/07/03 01:24:18;;;;;;;2.47;2.28;;;21.90;47.60;;;;;;19748;6846;310862;-88
2022/07/03 01:26:42;;;;;;;2.60;2.28;;;22.00;47.70;;;;;;20495;6846;337751;-88
2022/07/03 01:29:09;;;;;;;2.33;2.20;;;22.10;47.70;;;;;;20531;6846;331408;-88
2022/07/03 01:31:34;;;;;;;3.27;2.37;;;22.00;47.60;;;;;;20693;6846;117847;-88
2022/07/03 01:34:00;;;;;;;2.57;2.43;;;21.70;48.00;;;;;;20705;6846;118354;-88
2022/07/03 01:36:25;;;;;;;2.40;2.20;;;21.30;48.70;;;;;;20537;6846;278712;-88
2022/07/03 01:38:51;;;;;;;2.63;2.53;;;21.30;49.30;;;;;;20744;6846;118117;-88
2022/07/03 01:41:16;;;;;;;2.40;2.30;;;21.20;49.40;;;;;;20527;6846;282669;-88
2022/07/03 01:43:48;;;;;;;2.70;2.60;;;21.30;49.50;;;;;;20522;6846;308618;-88
2022/07/03 01:46:14;;;;;;;3.20;3.00;;;21.50;49.30;;;;;;20530;6846;280553;-88
2022/07/03 01:48:39;;;;;;;3.30;3.00;;;21.60;49.10;;;;;;20531;6846;310871;-88
2022/07/03 01:51:05;;;;;;;3.33;3.03;;;21.70;49.20;;;;;;20521;6846;281080;-88
2022/07/03 01:53:32;;;;;;;3.43;3.00;;;21.70;49.10;;;;;;20530;6846;336949;-88
2022/07/03 01:55:57;;;;;;;3.20;3.00;;;21.70;49.30;;;;;;20725;6846;117502;-88
2022/07/03 01:58:23;;;;;;;3.77;2.70;;;21.40;49.50;;;;;;20701;6846;118721;-88
2022/07/03 02:01:02;;;;;;;6.43;2.87;;;21.00;50.20;;;;;;20724;6846;117676;-89
2022/07/03 02:03:27;;;;;;;3.05;2.85;;;20.60;50.80;;;;;;20529;6846;278488;-90
2022/07/03 02:05:53;;;;;;;2.90;2.80;;;21.00;50.90;;;;;;20498;6846;308107;-88
2022/07/03 02:08:35;;;;;;;2.80;2.60;;;21.00;50.90;;;;;;20714;6846;117584;-88
2022/07/03 02:11:07;;;;;;;2.97;2.77;;;20.90;50.90;;;;;;20518;6846;307726;-88
2022/07/03 02:13:33;;;;;;;2.80;2.60;;;20.90;51.10;;;;;;20732;6846;117399;-88
2022/07/03 02:16:00;;;;;;;3.00;2.70;;;20.80;51.20;;;;;;20698;6846;117493;-88
2022/07/03 02:18:28;;;;;;;2.67;2.47;;;20.50;51.70;;;;;;20527;6846;277851;-88
2022/07/03 02:21:07;;;;;;;2.80;2.60;;;20.50;51.80;;;;;;20512;6846;303463;-88
2022/07/03 02:23:33;;;;;;;3.37;2.70;;;20.80;51.30;;;;;;20724;6846;117587;-88
2022/07/03 02:25:59;;;;;;;2.50;2.40;;;20.30;51.70;;;;;;20682;6846;121971;-88
2022/07/03 02:28:35;;;;;;;3.47;3.17;;;20.30;51.70;;;;;;20529;6846;307698;-88
2022/07/03 02:31:00;;;;;;;3.50;3.20;;;20.40;52.30;;;;;;20487;6844;281474;-89
2022/07/03 02:33:27;;;;;;;3.20;3.00;;;20.60;52.10;;;;;;20736;6845;120278;-88
2022/07/03 02:35:53;;;;;;;3.80;3.10;;;20.10;52.60;;;;;;20706;6845;121206;-88
2022/07/03 02:38:20;;;;;;;3.77;3.00;;;20.10;52.60;;;;;;20739;6846;117509;-88
2022/07/03 02:40:58;;;;;;;3.55;3.35;;;20.00;53.80;;;;;;20524;6846;278268;-87
2022/07/03 02:43:43;;;;;;;4.43;3.23;;;19.90;53.70;;;;;;20729;6846;118051;-87
2022/07/03 02:48:57;;;;;;;3.85;3.20;;;19.60;53.90;;;;;;20539;6846;307290;-87
2022/07/03 02:51:23;;;;;;;3.78;3.47;;;19.80;54.20;;;;;;20717;6846;117435;-87
2022/07/03 02:54:01;;;;;;;3.37;3.10;;;19.80;54.10;;;;;;20711;6846;117625;-87
2022/07/03 02:56:50;;;;;;;3.50;3.30;;;19.70;55.20;;;;;;20512;6846;280907;-88
2022/07/03 02:59:22;;;;;;;3.07;2.97;;;19.70;54.50;;;;;;20519;6846;117107;-87
2022/07/03 03:01:54;;;;;;;3.17;2.90;;;19.60;54.30;;;;;;20671;6846;117737;-88
2022/07/03 03:04:26;;;;;;;3.20;3.00;;;19.40;54.60;;;;;;20722;6846;117810;-87
2022/07/03 03:06:56;;;;;;;3.03;2.80;;;19.20;54.80;;;;;;20728;6846;118122;-88
2022/07/03 03:09:32;;;;;;;3.07;2.87;;;19.10;55.00;;;;;;20555;6846;116092;-88
2022/07/03 03:11:58;;;;;;;2.67;2.57;;;19.00;55.10;;;;;;20689;6846;122341;-88
2022/07/03 03:14:24;;;;;;;3.03;2.70;;;18.70;55.40;;;;;;20720;6846;120406;-88
2022/07/03 03:16:53;;;;;;;2.80;2.60;;;18.80;55.50;;;;;;20518;6846;339616;-88
2022/07/03 03:19:22;;;;;;;3.10;2.90;;;19.10;55.40;;;;;;20529;6846;280689;-89
2022/07/03 03:21:58;;;;;;;3.20;3.00;;;19.50;54.50;;;;;;20510;6846;278120;-88
2022/07/03 03:24:22;;;;;;;2.87;2.77;;;19.90;53.90;;;;;;20699;6846;116859;-87
2022/07/03 03:26:48;;;;;;;2.65;2.55;;;19.80;53.80;;;;;;20716;6846;116915;-88
2022/07/03 03:29:13;;;;;;;2.87;2.40;;;19.50;54.10;;;;;;20741;6846;117224;-88
2022/07/03 03:31:39;;;;;;;2.60;2.50;;;19.30;54.50;;;;;;20524;6846;302798;-88
2022/07/03 03:34:04;;;;;;;3.00;2.80;;;19.60;54.40;;;;;;20731;6846;117499;-87
2022/07/03 03:36:30;;;;;;;2.80;2.60;;;19.60;54.20;;;;;;20527;6846;311068;-88
2022/07/03 03:38:56;;;;;;;3.03;2.80;;;19.80;53.80;;;;;;20745;6846;117133;-90
2022/07/03 03:41:21;;;;;;;2.57;2.37;;;19.70;53.60;;;;;;20733;6844;117802;-89
2022/07/03 03:43:47;;;;;;;3.00;2.80;;;19.60;54.00;;;;;;20514;6845;308626;-89
2022/07/03 03:46:14;;;;;;;3.50;3.17;;;19.70;54.10;;;;;;20756;6845;117230;-90
2022/07/03 03:48:38;;;;;;;3.20;2.90;;;19.70;54.00;;;;;;20534;6846;307400;-87
2022/07/03 03:51:04;;;;;;;3.20;3.00;;;19.80;53.90;;;;;;20539;6846;312228;-89
2022/07/03 03:53:29;;;;;;;3.28;3.08;;;20.10;53.40;;;;;;20532;6846;308632;-88
2022/07/03 03:55:58;;;;;;;3.33;3.10;;;20.30;53.20;;;;;;20511;6846;336400;-87
2022/07/03 03:58:23;;;;;;;3.50;3.30;;;20.40;52.70;;;;;;20540;6846;278231;-88
2022/07/03 04:00:49;;;;;;;3.30;3.10;;;20.20;52.90;;;;;;20816;6846;116665;-90
2022/07/03 04:03:15;;;;;;;3.57;3.17;;;20.20;52.80;;;;;;20831;6846;116847;-88
2022/07/03 04:05:41;;;;;;;3.47;3.20;;;19.80;53.50;;;;;;20603;6846;308688;-89
2022/07/03 04:08:06;;;;;;;4.03;3.50;;;19.80;53.90;;;;;;20800;6846;118450;-88
2022/07/03 04:10:32;;;;;;;3.57;3.10;;;19.60;53.90;;;;;;20814;6846;116516;-90
2022/07/03 04:12:57;;;;;;;3.40;3.10;;;19.30;54.30;;;;;;20816;6846;116479;-89
2022/07/03 04:15:23;;;;;;;5.27;3.20;;;19.10;54.80;;;;;;20828;6846;119272;-88
2022/07/03 04:17:52;;;;;;;3.55;3.28;;;18.90;55.10;;;;;;20595;6846;335675;-88
2022/07/03 04:20:17;;;;;;;3.73;3.53;;;19.10;55.50;;;;;;20782;6846;121646;-88
2022/07/03 04:22:43;;;;;;;3.25;3.05;;;19.10;55.20;;;;;;20739;6846;117883;-88
2022/07/03 04:25:08;;;;;;;3.05;2.95;;;19.00;55.50;;;;;;20744;6846;117176;-88
2022/07/03 04:27:34;;;;;;;3.53;3.27;;;18.80;55.70;;;;;;20527;6846;310730;-88
2022/07/03 04:29:59;;;;;;;3.58;3.37;;;19.00;55.90;;;;;;20505;6846;334103;-89
2022/07/03 04:32:25;;;;;;;3.37;3.17;;;19.40;55.20;;;;;;20747;6846;117827;-88
2022/07/03 04:34:51;;;;;;;3.37;3.17;;;19.30;55.00;;;;;;20742;6846;120352;-88
2022/07/03 04:37:16;;;;;;;3.73;3.30;;;19.10;55.40;;;;;;20727;6846;117914;-88
2022/07/03 04:39:42;;;;;;;3.30;3.10;;;18.90;55.70;;;;;;20724;6846;117839;-89
2022/07/03 04:42:08;;;;;;;3.30;3.00;;;18.80;56.00;;;;;;20559;6846;119898;-89
2022/07/03 04:44:33;;;;;;;3.10;2.90;;;18.70;56.30;;;;;;20729;6846;117471;-89
2022/07/03 04:46:59;;;;;;;3.03;2.90;;;18.50;56.70;;;;;;20732;6846;117540;-89
2022/07/03 04:49:25;;;;;;;3.23;2.90;;;18.50;56.70;;;;;;20726;6846;117826;-88
2022/07/03 04:51:52;;;;;;;3.65;3.40;;;18.50;56.90;;;;;;20505;6846;308263;-88
2022/07/03 04:54:19;;;;;;;3.65;3.33;;;18.80;57.00;;;;;;20531;6844;280874;-88
2022/07/03 04:56:45;;;;;;;3.60;3.10;;;19.30;56.20;;;;;;20509;6845;310816;-89
2022/07/03 04:59:10;;;;;;;5.47;3.35;;;19.60;55.70;;;;;;20743;6846;117148;-89
2022/07/03 05:01:36;;;;;;;3.20;3.00;;;19.60;55.20;;;;;;20517;6846;308511;-88
2022/07/03 05:04:01;;;;;;;3.23;3.03;;;19.70;55.80;;;;;;20516;6846;317849;-90
2022/07/03 05:06:28;;;;;;;3.27;3.03;;;19.90;54.80;;;;;;20729;6846;117475;-90
2022/07/03 05:08:54;;;;;;;2.93;2.73;;;19.80;54.90;;;;;;20741;6846;118272;-89
2022/07/03 05:11:19;;;;;;;3.43;3.13;;;19.50;55.40;;;;;;20531;6846;308959;-89
2022/07/03 05:13:45;;;;;;;3.40;3.20;;;19.70;55.70;;;;;;20700;6846;118003;-89
2022/07/03 05:16:11;;;;;;;3.00;2.78;;;19.40;55.90;;;;;;20720;6846;124156;-89
2022/07/03 05:18:37;;;;;;;3.20;3.00;;;19.40;55.80;;;;;;20519;6846;308260;-88
2022/07/03 05:21:03;;;;;;;3.07;2.77;;;19.60;56.20;;;;;;20507;6846;279616;-89
2022/07/03 05:23:30;;;;;;;3.00;2.90;;;20.00;55.70;;;;;;20728;6846;117534;-88
2022/07/03 05:25:58;;;;;;;3.40;2.87;;;19.70;55.80;;;;;;20713;6846;120644;-88
2022/07/03 05:28:22;;;;;;;3.27;2.83;;;19.70;55.80;;;;;;20733;6846;121594;-88
2022/07/03 05:30:48;;;;;;;2.75;2.65;;;19.60;56.20;;;;;;20731;6846;117792;-87
2022/07/03 05:33:13;;;;;;;2.63;2.50;;;19.50;56.50;;;;;;20742;6846;117911;-88
2022/07/03 05:35:39;;;;;;;3.20;3.00;;;19.40;56.60;;;;;;20514;6846;308037;-86
2022/07/03 05:38:04;;;;;;;2.87;2.62;;;19.70;56.30;;;;;;20718;6846;117486;-89
2022/07/03 05:40:30;;;;;;;2.90;2.70;;;19.80;56.00;;;;;;20537;6846;280167;-87
2022/07/03 05:42:56;;;;;;;2.90;2.70;;;20.10;55.50;;;;;;20754;6846;117664;-84
2022/07/03 05:45:21;;;;;;;2.43;2.33;;;20.10;55.30;;;;;;20806;6846;116919;-90
2022/07/03 05:47:47;;;;;;;5.93;2.40;;;20.00;55.60;;;;;;20801;6846;120056;-88
2022/07/03 05:50:12;;;;;;;2.70;2.50;;;19.90;55.90;;;;;;20570;6846;307271;-88
2022/07/03 05:52:38;;;;;;;3.47;2.50;;;20.20;55.40;;;;;;20584;6846;309193;-87
2022/07/03 05:55:04;;;;;;;2.50;2.40;;;20.70;54.40;;;;;;20765;6846;122920;-85
2022/07/03 05:57:29;;;;;;;2.30;2.20;;;20.70;54.30;;;;;;20797;6846;119881;-88
2022/07/03 05:59:55;;;;;;;2.40;2.20;;;20.60;54.60;;;;;;20560;6846;309692;-89
2022/07/03 06:02:20;;;;;;;3.07;2.60;;;20.90;54.50;;;;;;20778;6846;121339;-89
2022/07/03 06:04:47;;;;;;;2.67;2.10;;;21.00;54.40;;;;;;20779;6844;116841;-87
2022/07/03 06:07:13;;;;;;;2.40;2.30;;;20.90;54.50;;;;;;20581;6845;278927;-87
2022/07/03 06:09:38;;;;;;;2.30;2.20;;;21.30;53.90;;;;;;20547;6845;279615;-88
2022/07/03 06:12:04;;;;;;;2.25;2.00;;;21.80;53.90;;;;;;20497;6846;308219;-88
2022/07/03 06:14:29;;;;;;;3.33;2.17;;;22.30;52.50;;;;;;20732;6846;117297;-87
2022/07/03 06:16:55;;;;;;;2.47;1.77;;;22.70;53.20;;;;;;20509;6846;308517;-87
2022/07/03 06:19:21;;;;;;;2.03;1.80;;;23.50;51.30;;;;;;20686;6846;117454;-88
2022/07/03 06:21:46;;;;;;;2.10;2.00;;;24.20;51.50;;;;;;20711;6846;117821;-87
2022/07/03 06:24:12;;;;;;;2.28;1.80;;;24.70;51.40;;;;;;20708;6846;117538;-88
2022/07/03 06:26:37;;;;;;;2.28;2.05;;;25.20;50.60;;;;;;20527;6846;309008;-84
2022/07/03 06:29:03;;;;;;;1.93;1.83;;;26.20;46.70;;;;;;20514;6846;308484;-86
2022/07/03 06:31:28;;;;;;;4.20;2.00;;;27.20;44.40;;;;;;20726;6846;117459;-87
2022/07/03 06:33:54;;;;;;;2.17;2.00;;;27.80;46.00;;;;;;20496;6846;278537;-86
2022/07/03 06:36:19;;;;;;;2.22;1.80;;;28.40;43.30;;;;;;20514;6846;279822;-85
2022/07/03 06:38:45;;;;;;;1.83;1.80;;;29.00;41.80;;;;;;20533;6846;279711;-86
2022/07/03 06:41:11;;;;;;;1.90;1.75;;;29.60;41.20;;;;;;20487;6846;337679;-84
2022/07/03 06:43:37;;;;;;;1.67;1.60;;;30.10;41.20;;;;;;20739;6846;117325;-85
2022/07/03 06:46:02;;;;;;;2.50;1.73;;;30.10;40.80;;;;;;20513;6846;279406;-85
2022/07/03 06:48:29;;;;;;;2.00;1.70;;;30.30;38.90;;;;;;20525;6846;280966;-86
2022/07/03 06:50:55;;;;;;;1.70;1.60;;;30.80;37.80;;;;;;20720;6846;117360;-87
2022/07/03 06:53:20;;;;;;;1.90;1.70;;;30.80;38.90;;;;;;20530;6846;280897;-87
2022/07/03 06:55:46;;;;;;;1.60;1.55;;;31.10;37.50;;;;;;20718;6846;117511;-86
2022/07/03 06:58:11;;;;;;;1.77;1.70;;;31.10;38.30;;;;;;20744;6846;116662;-87
2022/07/03 07:00:38;;;;;;;3.10;1.60;;;31.00;38.80;;;;;;20525;6846;308824;-86
2022/07/03 07:03:04;;;;;;;2.10;1.60;;;31.30;37.40;;;;;;20516;6846;311974;-87
2022/07/03 07:05:29;;;;;;;1.60;1.53;;;31.80;35.90;;;;;;20732;6846;117456;-88
2022/07/03 07:07:55;;;;;;;1.57;1.50;;;31.80;36.40;;;;;;20723;6846;117222;-88
2022/07/03 07:10:21;;;;;;;1.40;1.40;;;31.70;36.90;;;;;;20512;6846;309322;-87
2022/07/03 07:12:49;;;;;;;1.60;1.50;;;31.90;35.80;;;;;;20738;6846;117145;-87
2022/07/03 07:15:13;;;;;;;1.40;1.40;;;31.90;36.50;;;;;;20509;6846;310820;-87
2022/07/03 07:17:39;;;;;;;1.77;1.30;;;32.00;35.50;;;;;;20748;6844;117122;-87
2022/07/03 07:20:05;;;;;;;2.03;1.23;;;32.00;35.80;;;;;;20729;6845;118429;-87
2022/07/03 07:22:30;;;;;;;1.60;1.50;;;31.80;36.40;;;;;;20454;6846;307672;-87
2022/07/03 07:24:56;;;;;;;1.70;1.20;;;32.00;36.10;;;;;;20726;6846;117624;-88
2022/07/03 07:27:22;;;;;;;1.85;1.60;;;32.00;36.70;;;;;;20519;6846;309513;-88
2022/07/03 07:29:51;;;;;;;1.27;1.27;;;32.10;35.40;;;;;;20715;6846;119387;-89
2022/07/03 07:32:17;;;;;;;2.47;1.30;;;32.00;36.50;;;;;;20486;6846;308928;-87
2022/07/03 07:34:43;;;;;;;1.20;1.20;;;32.00;36.50;;;;;;20731;6846;117329;-86
2022/07/03 07:37:08;;;;;;;1.60;1.50;;;31.90;36.60;;;;;;20507;6846;308420;-87
2022/07/03 07:39:34;;;;;;;2.83;1.33;;;31.80;35.60;;;;;;20524;6846;310349;-84
2022/07/03 07:42:01;;;;;;;1.30;1.20;;;31.90;35.50;;;;;;20510;6846;309023;-87
2022/07/03 07:44:26;;;;;;;2.30;1.30;;;31.90;35.90;;;;;;20539;6846;279865;-86
2022/07/03 07:46:52;;;;;;;2.30;1.33;;;31.80;34.80;;;;;;20536;6846;279317;-86
2022/07/03 07:49:17;;;;;;;1.15;1.15;;;31.70;35.40;;;;;;20502;6846;282941;-87
2022/07/03 07:51:43;;;;;;;1.33;1.23;;;31.70;36.20;;;;;;20400;6846;278671;-87
2022/07/03 07:54:08;;;;;;;1.17;1.17;;;31.60;35.80;;;;;;20531;6846;308641;-84
2022/07/03 07:56:34;;;;;;;1.10;1.10;;;31.60;35.30;;;;;;20516;6846;322114;-85
2022/07/03 07:59:01;;;;;;;1.10;1.10;;;31.60;35.70;;;;;;20525;6846;334103;-86
2022/07/03 08:06:59;;;;;;;1.30;1.02;;;31.10;36.60;;;;;;20525;6846;278815;-86
2022/07/03 08:09:27;;;;;;;1.70;0.90;;;31.40;34.90;;;;;;20485;6846;308117;-86
2022/07/03 08:11:52;;;;;;;0.93;0.93;;;31.40;34.90;;;;;;20662;6846;119440;-86
2022/07/03 08:14:18;;;;;;;1.30;1.00;;;31.40;35.20;;;;;;20522;6846;280336;-87
2022/07/03 08:16:45;;;;;;;2.17;1.10;;;31.50;34.70;;;;;;20736;6846;116099;-88
2022/07/03 08:19:10;;;;;;;1.00;0.98;;;31.50;35.20;;;;;;20530;6846;308550;-86
2022/07/03 08:21:36;;;;;;;1.17;1.10;;;31.60;34.40;;;;;;20719;6846;117447;-87
2022/07/03 08:24:01;;;;;;;1.00;1.00;;;31.60;35.20;;;;;;20700;6846;117924;-89
2022/07/03 08:26:27;;;;;;;1.00;1.00;;;31.40;35.70;;;;;;20529;6846;310558;-87
2022/07/03 08:28:54;;;;;;;0.90;0.90;;;31.60;33.20;;;;;;20525;6844;280272;-87
2022/07/03 08:31:19;;;;;;;2.00;1.00;;;31.80;34.60;;;;;;20530;6845;277778;-88
2022/07/03 08:33:46;;;;;;;1.70;0.93;;;32.30;33.30;;;;;;20503;6845;308569;-89
2022/07/03 08:36:11;;;;;;;1.23;1.00;;;32.30;33.30;;;;;;20544;6846;277185;-87
2022/07/03 08:38:37;;;;;;;0.83;0.70;;;32.40;32.50;;;;;;20735;6846;118081;-89
2022/07/03 08:41:05;;;;;;;2.22;0.90;;;32.30;32.90;;;;;;20733;6846;117395;-88
2022/07/03 08:43:30;;;;;;;1.10;1.07;;;32.10;33.40;;;;;;20715;6846;120277;-87
2022/07/03 08:45:56;;;;;;;0.77;0.77;;;31.80;34.10;;;;;;20704;6846;117489;-88
2022/07/03 08:48:22;;;;;;;1.50;0.80;;;31.70;34.00;;;;;;20698;6846;118046;-89
2022/07/03 08:50:47;;;;;;;1.08;0.90;;;31.70;33.90;;;;;;20508;6846;309582;-88
2022/07/03 08:53:13;;;;;;;1.83;0.83;;;31.90;33.70;;;;;;20516;6846;309147;-87
2022/07/03 08:55:38;;;;;;;1.73;0.70;;;32.30;30.60;;;;;;20533;6846;278352;-89
2022/07/03 08:58:04;;;;;;;0.80;0.80;;;32.60;30.20;;;;;;20716;6846;117574;-87
2022/07/03 09:00:29;;;;;;;1.00;0.73;;;32.50;31.00;;;;;;20518;6846;293736;-86
2022/07/03 09:02:55;;;;;;;0.70;0.60;;;32.60;32.10;;;;;;20743;6846;117465;-89
2022/07/03 09:05:21;;;;;;;0.93;0.93;;;32.70;31.70;;;;;;20535;6846;278842;-87
2022/07/03 09:07:47;;;;;;;2.67;0.87;;;32.70;30.90;;;;;;20491;6846;283496;-86
2022/07/03 09:10:12;;;;;;;0.50;0.50;;;33.00;31.00;;;;;;20725;6846;119291;-86
2022/07/03 09:12:38;;;;;;;1.80;0.70;;;33.00;31.90;;;;;;20715;6846;118398;-87
2022/07/03 09:15:04;;;;;;;0.80;0.70;;;32.80;31.80;;;;;;20523;6846;307789;-87
2022/07/03 09:17:29;;;;;;;1.07;0.70;;;32.90;31.00;;;;;;20705;6846;118616;-88
2022/07/03 09:19:55;;;;;;;0.67;0.67;;;32.90;31.60;;;;;;20483;6846;312419;-88
2022/07/03 09:22:27;;;;;;;1.00;0.70;;;33.00;29.50;;;;;;20512;6846;278117;-88
2022/07/03 09:24:52;;;;;;;1.53;0.60;;;33.30;29.70;;;;;;20721;6846;117441;-87
2022/07/03 09:27:19;;;;;;;0.97;0.70;;;33.20;30.50;;;;;;20721;6846;117793;-88
2022/07/03 09:30:01;;;;;;;0.65;0.60;;;33.00;30.80;;;;;;20481;6846;331738;-86
2022/07/03 09:32:36;;;;;;;0.83;0.83;;;33.00;30.70;;;;;;20584;6846;117366;-87
2022/07/03 09:35:09;;;;;;;0.75;0.75;;;33.10;31.20;;;;;;20314;6846;307938;-88
2022/07/03 09:37:34;;;;;;;1.10;0.52;;;33.30;29.90;;;;;;20510;6846;298258;-88
2022/07/03 09:40:01;;;;;;;1.90;0.80;;;33.60;28.90;;;;;;20502;6844;311518;-85
2022/07/03 09:42:27;;;;;;;1.80;0.60;;;33.80;28.00;;;;;;20505;6845;307300;-85
2022/07/03 09:44:53;;;;;;;1.10;0.60;;;34.10;28.10;;;;;;20468;6846;280662;-88
2022/07/03 09:47:24;;;;;;;1.20;0.68;;;34.20;27.60;;;;;;20508;6846;342590;-88
2022/07/03 09:49:56;;;;;;;0.47;0.47;;;34.10;27.50;;;;;;20738;6846;118001;-90
2022/07/03 09:52:28;;;;;;;1.27;0.55;;;34.00;28.30;;;;;;20533;6846;290587;-88
2022/07/03 09:54:54;;;;;;;0.80;0.80;;;33.90;27.70;;;;;;20765;6846;117614;-89
2022/07/03 09:57:20;;;;;;;0.50;0.50;;;33.90;28.30;;;;;;20801;6846;118937;-87
2022/07/03 09:59:45;;;;;;;1.53;0.80;;;33.70;28.70;;;;;;20750;6846;118452;-87
2022/07/03 10:02:11;;;;;;;0.50;0.50;;;33.50;28.60;;;;;;20802;6846;116523;-87
2022/07/03 10:04:38;;;;;;;1.17;0.87;;;33.40;28.40;;;;;;20787;6846;117811;-88
2022/07/03 10:07:13;;;;;;;0.60;0.60;;;33.20;28.70;;;;;;20533;6846;336869;-88
2022/07/03 10:09:39;;;;;;;1.33;0.52;;;33.40;27.40;;;;;;20738;6846;117318;-88
2022/07/03 10:12:10;;;;;;;1.53;0.50;;;33.50;28.70;;;;;;20759;6846;117548;-88
2022/07/03 10:14:35;;;;;;;1.63;0.50;;;33.50;28.40;;;;;;20738;6846;120407;-85
2022/07/03 10:17:02;;;;;;;0.70;0.70;;;33.30;28.30;;;;;;20764;6846;119151;-88
2022/07/03 10:19:26;;;;;;;1.30;0.60;;;33.30;28.50;;;;;;20717;6846;118395;-88
2022/07/03 10:22:01;;;;;;;1.27;0.60;;;33.20;28.50;;;;;;20708;6846;126500;-87
2022/07/03 10:24:30;;;;;;;1.20;0.60;;;33.20;29.10;;;;;;20727;6846;117593;-87
2022/07/03 10:26:56;;;;;;;0.90;0.60;;;33.20;28.90;;;;;;20777;6846;120707;-86
2022/07/03 10:29:22;;;;;;;0.70;0.67;;;33.10;28.70;;;;;;20539;6846;283446;-86
2022/07/03 10:31:48;;;;;;;2.57;0.70;;;33.30;27.50;;;;;;20716;6846;118742;-86
2022/07/03 10:34:16;;;;;;;0.40;0.40;;;33.50;27.90;;;;;;20731;6846;117409;-86
2022/07/03 10:36:41;;;;;;;0.57;0.57;;;33.40;28.10;;;;;;20720;6846;117375;-87
2022/07/03 10:39:09;;;;;;;0.50;0.50;;;33.60;27.10;;;;;;20552;6846;307185;-87
2022/07/03 10:47:07;;;;;;;0.50;0.50;;;34.10;27.50;;;;;;20762;6846;117605;-88
2022/07/03 10:49:32;;;;;;;0.60;0.53;;;34.10;27.50;;;;;;20637;6846;117330;-86
2022/07/03 10:51:58;;;;;;;1.12;0.60;;;33.90;27.40;;;;;;20492;6844;308362;-88
2022/07/03 10:54:30;;;;;;;0.43;0.43;;;34.00;27.40;;;;;;20736;6845;117213;-89
2022/07/03 10:57:00;;;;;;;0.70;0.70;;;34.00;27.20;;;;;;20511;6846;309101;-87
2022/07/03 10:59:31;;;;;;;1.80;0.70;;;34.00;27.30;;;;;;20538;6846;285222;-85
2022/07/03 11:02:23;;;;;;;0.60;0.60;;;34.20;27.30;;;;;;20491;6846;310863;-87
2022/07/03 11:04:59;;;;;;;0.82;0.60;;;34.30;26.10;;;;;;20509;6846;337637;-87
2022/07/03 11:07:31;;;;;;;0.50;0.50;;;34.40;27.20;;;;;;20716;6846;117925;-87
2022/07/03 11:10:05;;;;;;;1.00;0.50;;;34.40;27.50;;;;;;20497;6846;336695;-87
2022/07/03 11:12:57;;;;;;;0.70;0.70;;;34.40;26.40;;;;;;20714;6846;119520;-87
2022/07/03 11:15:42;;;;;;;0.52;0.52;;;34.20;27.10;;;;;;20515;6846;339382;-87
2022/07/03 11:18:14;;;;;;;1.47;0.50;;;34.30;26.90;;;;;;20707;6846;117803;-87
2022/07/03 11:20:40;;;;;;;1.73;0.50;;;34.10;27.50;;;;;;20519;6846;306984;-86
2022/07/03 11:23:18;;;;;;;1.07;0.70;;;34.10;26.80;;;;;;20734;6846;119521;-88
2022/07/03 11:25:47;;;;;;;0.47;0.47;;;34.10;26.80;;;;;;20687;6846;117466;-86
2022/07/03 11:28:32;;;;;;;0.60;0.60;;;33.80;27.30;;;;;;20703;6846;121780;-86
2022/07/03 11:33:54;;;;;;;1.40;1.30;;;33.50;28.40;;;;;;20685;6846;119568;-87
2022/07/03 11:36:29;;;;;;;2.77;0.70;;;33.40;28.80;;;;;;20721;6846;117936;-83
2022/07/03 11:38:54;;;;;;;2.07;0.70;;;33.40;29.10;;;;;;20710;6846;117346;-85
2022/07/03 11:41:20;;;;;;;0.73;0.70;;;33.30;29.10;;;;;;20481;6846;308660;-84
2022/07/03 11:43:46;;;;;;;1.47;1.07;;;33.50;27.50;;;;;;20725;6846;117644;-83
2022/07/03 11:46:11;;;;;;;0.60;0.60;;;33.60;27.50;;;;;;20507;6846;304473;-85
2022/07/03 11:48:37;;;;;;;1.23;0.70;;;33.70;28.40;;;;;;20506;6846;278480;-85
2022/07/03 11:51:02;;;;;;;0.90;0.60;;;33.90;26.40;;;;;;20511;6846;310189;-83
2022/07/03 11:53:29;;;;;;;0.50;0.50;;;34.00;26.50;;;;;;20721;6846;117931;-85
2022/07/03 11:55:54;;;;;;;1.63;0.67;;;34.00;26.50;;;;;;20639;6846;117786;-86
2022/07/03 11:58:21;;;;;;;0.70;0.47;;;33.80;26.30;;;;;;20718;6846;118133;-87
2022/07/03 12:00:47;;;;;;;0.57;0.57;;;33.60;27.00;;;;;;20725;6846;118046;-86
2022/07/03 12:03:15;;;;;;;0.60;0.60;;;33.40;26.90;;;;;;20735;6844;118565;-88
2022/07/03 12:05:58;;;;;;;0.75;0.45;;;33.40;25.20;;;;;;20513;6845;307804;-87
2022/07/03 12:08:28;;;;;;;0.77;0.53;;;33.40;26.90;;;;;;20744;6846;117571;-86
2022/07/03 12:10:58;;;;;;;0.97;0.77;;;33.50;26.60;;;;;;20510;6846;281632;-90
2022/07/03 12:13:25;;;;;;;0.63;0.60;;;33.50;26.50;;;;;;20526;6846;279190;-87
2022/07/03 12:15:51;;;;;;;1.50;1.40;;;34.00;26.50;;;;;;20500;6846;308014;-89
2022/07/03 12:18:17;;;;;;;2.00;0.70;;;33.90;26.40;;;;;;20745;6846;117531;-86
2022/07/03 12:20:43;;;;;;;1.90;1.80;;;33.90;26.20;;;;;;20734;6846;117651;-85
2022/07/03 12:23:08;;;;;;;1.60;1.50;;;33.70;26.90;;;;;;20534;6846;278991;-85
2022/07/03 12:25:38;;;;;;;1.27;0.73;;;33.80;25.50;;;;;;20533;6846;279906;-87
2022/07/03 12:28:03;;;;;;;0.93;0.50;;;33.80;24.90;;;;;;20703;6846;123494;-89
2022/07/03 12:30:29;;;;;;;0.70;0.70;;;33.70;25.40;;;;;;20744;6846;118640;-89
2022/07/03 12:32:56;;;;;;;0.60;0.60;;;33.40;26.10;;;;;;20743;6846;117811;-85
2022/07/03 12:35:21;;;;;;;0.70;0.45;;;33.20;27.30;;;;;;20527;6846;339415;-86
2022/07/03 12:37:47;;;;;;;0.67;0.60;;;33.20;25.00;;;;;;20723;6846;117852;-87
2022/07/03 12:40:16;;;;;;;1.40;0.50;;;33.20;25.60;;;;;;20555;6846;277989;-87
2022/07/03 12:42:48;;;;;;;5.20;0.90;;;33.20;26.40;;;;;;20745;6846;116545;-87
2022/07/03 12:45:14;;;;;;;0.90;0.70;;;33.20;26.40;;;;;;20531;6846;307784;-85
2022/07/03 12:47:39;;;;;;;0.60;0.60;;;33.30;26.20;;;;;;20463;6846;307834;-85
2022/07/03 12:50:05;;;;;;;3.13;0.80;;;33.40;26.00;;;;;;20501;6846;309265;-85
2022/07/03 12:52:31;;;;;;;0.70;0.70;;;33.60;25.90;;;;;;20707;6846;116942;-84
2022/07/03 12:54:56;;;;;;;0.60;0.60;;;33.40;26.30;;;;;;20533;6846;279087;-83